sensor_id;sensor_type;location;lat;lon;timestamp;pressure;altitude;pressure_sealevel;temperature;humidity
63916;BME280;50094;51.356;-0.196;2023-01-19T00:01:32;99811.63;;;20.91;23.50
63916;BME280;50094;51.356;-0.196;2023-01-19T00:03:59;99812.47;;;21.06;23.53
63916;BME280;50094;51.356;-0.196;2023-01-19T00:06:26;99810.55;;;20.83;23.52
63916;BME280;50094;51.356;-0.196;2023-01-19T00:08:54;99809.64;;;20.76;23.54
63916;BME280;50094;51.356;-0.196;2023-01-19T00:11:21;99811.39;;;20.78;23.53
63916;BME280;50094;51.356;-0.196;2023-01-19T00:13:49;99810.61;;;20.99;23.54
63916;BME280;50094;51.356;-0.196;2023-01-19T00:16:17;99808.82;;;20.80;23.51
63916;BME280;50094;51.356;-0.196;2023-01-19T00:18:45;99805.99;;;20.73;23.51
63916;BME280;50094;51.356;-0.196;2023-01-19T00:21:13;99806.01;;;20.75;23.50
63916;BME280;50094;51.356;-0.196;2023-01-19T00:23:40;99803.46;;;20.89;23.51
63916;BME280;50094;51.356;-0.196;2023-01-19T00:26:07;99803.97;;;20.62;23.52
63916;BME280;50094;51.356;-0.196;2023-01-19T00:28:34;99807.94;;;20.82;23.56
63916;BME280;50094;51.356;-0.196;2023-01-19T00:31:01;99807.35;;;20.84;23.55
63916;BME280;50094;51.356;-0.196;2023-01-19T00:33:28;99808.64;;;20.63;23.54
63916;BME280;50094;51.356;-0.196;2023-01-19T00:35:55;99810.40;;;20.60;23.52
63916;BME280;50094;51.356;-0.196;2023-01-19T00:38:22;99811.54;;;20.59;23.52
63916;BME280;50094;51.356;-0.196;2023-01-19T00:40:49;99810.21;;;20.54;23.52
63916;BME280;50094;51.356;-0.196;2023-01-19T00:43:16;99812.97;;;20.72;23.51
63916;BME280;50094;51.356;-0.196;2023-01-19T00:45:44;99813.21;;;20.46;23.53
63916;BME280;50094;51.356;-0.196;2023-01-19T00:48:11;99811.95;;;20.61;23.53
63916;BME280;50094;51.356;-0.196;2023-01-19T00:50:38;99816.07;;;20.61;23.55
63916;BME280;50094;51.356;-0.196;2023-01-19T00:53:05;99810.28;;;20.63;23.55
63916;BME280;50094;51.356;-0.196;2023-01-19T00:55:32;99809.82;;;20.63;23.53
63916;BME280;50094;51.356;-0.196;2023-01-19T00:57:59;99809.23;;;20.39;23.52
63916;BME280;50094;51.356;-0.196;2023-01-19T01:00:26;99808.22;;;20.60;23.52
63916;BME280;50094;51.356;-0.196;2023-01-19T01:02:53;99809.73;;;20.33;23.54
63916;BME280;50094;51.356;-0.196;2023-01-19T01:05:20;99807.33;;;20.31;23.54
63916;BME280;50094;51.356;-0.196;2023-01-19T01:07:47;99811.56;;;20.80;23.54
63916;BME280;50094;51.356;-0.196;2023-01-19T01:10:17;99810.68;;;20.48;23.54
63916;BME280;50094;51.356;-0.196;2023-01-19T01:12:44;99812.39;;;20.48;23.53
63916;BME280;50094;51.356;-0.196;2023-01-19T01:15:13;99814.28;;;20.46;23.54
63916;BME280;50094;51.356;-0.196;2023-01-19T01:17:40;99817.17;;;20.42;23.56
63916;BME280;50094;51.356;-0.196;2023-01-19T01:20:10;99817.90;;;20.46;23.53
63916;BME280;50094;51.356;-0.196;2023-01-19T01:22:37;99817.51;;;20.43;23.54
63916;BME280;50094;51.356;-0.196;2023-01-19T01:25:05;99820.56;;;20.18;23.55
63916;BME280;50094;51.356;-0.196;2023-01-19T01:27:32;99823.61;;;20.38;23.55
63916;BME280;50094;51.356;-0.196;2023-01-19T01:29:59;99827.22;;;20.36;23.56
63916;BME280;50094;51.356;-0.196;2023-01-19T01:32:26;99825.28;;;20.43;23.54
63916;BME280;50094;51.356;-0.196;2023-01-19T01:34:52;99825.97;;;20.36;23.58
63916;BME280;50094;51.356;-0.196;2023-01-19T01:37:19;99824.51;;;20.63;23.61
63916;BME280;50094;51.356;-0.196;2023-01-19T01:39:46;99826.92;;;20.32;23.61
63916;BME280;50094;51.356;-0.196;2023-01-19T01:42:16;99827.80;;;20.18;23.57
63916;BME280;50094;51.356;-0.196;2023-01-19T01:44:47;99826.33;;;20.67;23.53
63916;BME280;50094;51.356;-0.196;2023-01-19T01:47:19;99828.42;;;20.33;23.54
63916;BME280;50094;51.356;-0.196;2023-01-19T01:49:50;99828.18;;;20.57;23.52
63916;BME280;50094;51.356;-0.196;2023-01-19T01:52:22;99824.80;;;20.11;23.49
63916;BME280;50094;51.356;-0.196;2023-01-19T01:54:51;99825.76;;;20.29;23.47
63916;BME280;50094;51.356;-0.196;2023-01-19T01:57:19;99824.61;;;20.29;23.46
63916;BME280;50094;51.356;-0.196;2023-01-19T01:59:47;99825.57;;;20.22;23.46
63916;BME280;50094;51.356;-0.196;2023-01-19T02:02:18;99825.90;;;20.49;23.45
63916;BME280;50094;51.356;-0.196;2023-01-19T02:04:49;99826.82;;;20.50;23.43
63916;BME280;50094;51.356;-0.196;2023-01-19T02:07:23;99822.94;;;20.12;23.44
63916;BME280;50094;51.356;-0.196;2023-01-19T02:09:53;99825.45;;;20.08;23.45
63916;BME280;50094;51.356;-0.196;2023-01-19T02:12:20;99823.11;;;20.07;23.45
63916;BME280;50094;51.356;-0.196;2023-01-19T02:14:48;99824.97;;;20.06;23.46
63916;BME280;50094;51.356;-0.196;2023-01-19T02:17:15;99829.39;;;20.01;23.46
63916;BME280;50094;51.356;-0.196;2023-01-19T02:19:42;99831.23;;;20.29;23.46
63916;BME280;50094;51.356;-0.196;2023-01-19T02:22:13;99835.96;;;20.24;23.48
63916;BME280;50094;51.356;-0.196;2023-01-19T02:24:42;99838.90;;;20.20;23.49
63916;BME280;50094;51.356;-0.196;2023-01-19T02:27:11;99841.22;;;20.21;23.48
63916;BME280;50094;51.356;-0.196;2023-01-19T02:29:38;99845.19;;;19.90;23.50
63916;BME280;50094;51.356;-0.196;2023-01-19T02:32:06;99843.69;;;19.93;23.48
63916;BME280;50094;51.356;-0.196;2023-01-19T02:34:34;99843.23;;;19.93;23.47
63916;BME280;50094;51.356;-0.196;2023-01-19T02:37:05;99842.74;;;20.20;23.47
63916;BME280;50094;51.356;-0.196;2023-01-19T02:39:35;99841.75;;;20.16;23.47
63916;BME280;50094;51.356;-0.196;2023-01-19T02:42:05;99842.18;;;20.16;23.43
63916;BME280;50094;51.356;-0.196;2023-01-19T02:44:34;99842.36;;;20.11;23.46
63916;BME280;50094;51.356;-0.196;2023-01-19T02:47:03;99842.95;;;19.84;23.46
63916;BME280;50094;51.356;-0.196;2023-01-19T02:49:30;99846.66;;;20.28;23.47
63916;BME280;50094;51.356;-0.196;2023-01-19T02:51:57;99846.90;;;20.08;23.47
63916;BME280;50094;51.356;-0.196;2023-01-19T02:54:32;99849.31;;;20.06;23.48
63916;BME280;50094;51.356;-0.196;2023-01-19T02:57:14;99851.85;;;20.06;23.49
63916;BME280;50094;51.356;-0.196;2023-01-19T02:59:53;99850.81;;;20.16;23.47
63916;BME280;50094;51.356;-0.196;2023-01-19T03:02:30;99852.80;;;20.10;23.46
63916;BME280;50094;51.356;-0.196;2023-01-19T03:05:21;99848.79;;;20.06;23.46
63916;BME280;50094;51.356;-0.196;2023-01-19T03:07:57;99843.78;;;20.07;23.46
63916;BME280;50094;51.356;-0.196;2023-01-19T03:10:36;99847.29;;;20.04;23.45
63916;BME280;50094;51.356;-0.196;2023-01-19T03:13:11;99851.01;;;19.78;23.43
63916;BME280;50094;51.356;-0.196;2023-01-19T03:15:44;99846.77;;;20.01;23.42
63916;BME280;50094;51.356;-0.196;2023-01-19T03:18:15;99843.90;;;19.96;23.42
63916;BME280;50094;51.356;-0.196;2023-01-19T03:20:44;99843.19;;;19.93;23.44
63916;BME280;50094;51.356;-0.196;2023-01-19T03:23:14;99844.21;;;19.89;23.44
63916;BME280;50094;51.356;-0.196;2023-01-19T03:25:45;99844.92;;;19.94;23.43
63916;BME280;50094;51.356;-0.196;2023-01-19T03:28:15;99847.06;;;19.93;23.43
63916;BME280;50094;51.356;-0.196;2023-01-19T03:30:48;99850.04;;;19.94;23.41
63916;BME280;50094;51.356;-0.196;2023-01-19T03:33:22;99850.71;;;19.92;23.40
63916;BME280;50094;51.356;-0.196;2023-01-19T03:35:53;99848.79;;;19.89;23.40
63916;BME280;50094;51.356;-0.196;2023-01-19T03:38:25;99848.88;;;19.85;23.40
63916;BME280;50094;51.356;-0.196;2023-01-19T03:40:55;99844.69;;;19.84;23.40
63916;BME280;50094;51.356;-0.196;2023-01-19T03:43:25;99845.29;;;19.82;23.40
63916;BME280;50094;51.356;-0.196;2023-01-19T03:45:54;99844.27;;;19.84;23.39
63916;BME280;50094;51.356;-0.196;2023-01-19T03:48:23;99847.02;;;19.80;23.39
63916;BME280;50094;51.356;-0.196;2023-01-19T03:50:50;99850.39;;;19.79;23.39
63916;BME280;50094;51.356;-0.196;2023-01-19T03:53:20;99854.52;;;19.76;23.40
63916;BME280;50094;51.356;-0.196;2023-01-19T03:55:50;99859.40;;;19.78;23.39
63916;BME280;50094;51.356;-0.196;2023-01-19T03:58:17;99858.91;;;19.75;23.43
63916;BME280;50094;51.356;-0.196;2023-01-19T04:00:44;99859.21;;;19.75;23.44
63916;BME280;50094;51.356;-0.196;2023-01-19T04:03:13;99854.67;;;19.79;23.42
63916;BME280;50094;51.356;-0.196;2023-01-19T04:05:41;99857.34;;;19.78;23.41
63916;BME280;50094;51.356;-0.196;2023-01-19T04:08:08;99861.61;;;19.78;23.41
63916;BME280;50094;51.356;-0.196;2023-01-19T04:10:36;99859.49;;;19.72;23.44
63916;BME280;50094;51.356;-0.196;2023-01-19T04:13:03;99858.55;;;19.72;23.42
63916;BME280;50094;51.356;-0.196;2023-01-19T04:15:32;99859.03;;;19.74;23.41
63916;BME280;50094;51.356;-0.196;2023-01-19T04:17:59;99859.57;;;19.95;23.40
63916;BME280;50094;51.356;-0.196;2023-01-19T04:20:27;99858.72;;;19.72;23.40
63916;BME280;50094;51.356;-0.196;2023-01-19T04:22:58;99857.50;;;19.63;23.40
63916;BME280;50094;51.356;-0.196;2023-01-19T04:25:26;99859.31;;;19.62;23.41
63916;BME280;50094;51.356;-0.196;2023-01-19T04:27:53;99855.15;;;19.67;23.40
63916;BME280;50094;51.356;-0.196;2023-01-19T04:30:21;99856.05;;;19.71;23.40
63916;BME280;50094;51.356;-0.196;2023-01-19T04:32:47;99857.85;;;19.69;23.38
63916;BME280;50094;51.356;-0.196;2023-01-19T04:35:15;99855.07;;;19.65;23.40
63916;BME280;50094;51.356;-0.196;2023-01-19T04:37:41;99856.19;;;19.67;23.38
63916;BME280;50094;51.356;-0.196;2023-01-19T04:40:10;99854.81;;;19.66;23.38
63916;BME280;50094;51.356;-0.196;2023-01-19T04:42:37;99849.61;;;19.72;23.35
63916;BME280;50094;51.356;-0.196;2023-01-19T04:45:05;99848.97;;;19.65;23.36
63916;BME280;50094;51.356;-0.196;2023-01-19T04:47:32;99847.63;;;19.59;23.38
63916;BME280;50094;51.356;-0.196;2023-01-19T04:49:59;99840.69;;;19.62;23.36
63916;BME280;50094;51.356;-0.196;2023-01-19T04:52:30;99842.82;;;19.58;23.36
63916;BME280;50094;51.356;-0.196;2023-01-19T04:54:57;99845.94;;;19.62;23.34
63916;BME280;50094;51.356;-0.196;2023-01-19T04:57:24;99845.46;;;19.54;23.35
63916;BME280;50094;51.356;-0.196;2023-01-19T04:59:51;99847.13;;;19.59;23.35
63916;BME280;50094;51.356;-0.196;2023-01-19T05:02:18;99849.42;;;19.56;23.36
63916;BME280;50094;51.356;-0.196;2023-01-19T05:04:45;99849.86;;;19.55;23.35
63916;BME280;50094;51.356;-0.196;2023-01-19T05:07:12;99849.76;;;19.53;23.35
63916;BME280;50094;51.356;-0.196;2023-01-19T05:09:39;99848.66;;;19.52;23.36
63916;BME280;50094;51.356;-0.196;2023-01-19T05:12:06;99847.41;;;19.54;23.35
63916;BME280;50094;51.356;-0.196;2023-01-19T05:14:33;99848.98;;;19.45;23.37
63916;BME280;50094;51.356;-0.196;2023-01-19T05:17:01;99852.30;;;19.48;23.35
63916;BME280;50094;51.356;-0.196;2023-01-19T05:19:28;99852.16;;;19.42;23.38
63916;BME280;50094;51.356;-0.196;2023-01-19T05:21:55;99849.20;;;19.43;23.37
63916;BME280;50094;51.356;-0.196;2023-01-19T05:24:22;99847.45;;;19.42;23.38
63916;BME280;50094;51.356;-0.196;2023-01-19T05:26:49;99850.41;;;19.86;23.38
63916;BME280;50094;51.356;-0.196;2023-01-19T05:29:16;99850.97;;;19.63;23.38
63916;BME280;50094;51.356;-0.196;2023-01-19T05:31:43;99850.69;;;19.62;23.39
63916;BME280;50094;51.356;-0.196;2023-01-19T05:34:11;99850.13;;;19.64;23.39
63916;BME280;50094;51.356;-0.196;2023-01-19T05:36:38;99847.36;;;19.42;23.44
63916;BME280;50094;51.356;-0.196;2023-01-19T05:39:05;99848.71;;;19.64;23.45
63916;BME280;50094;51.356;-0.196;2023-01-19T05:41:33;99846.68;;;19.45;23.49
63916;BME280;50094;51.356;-0.196;2023-01-19T05:44:00;99843.08;;;19.83;23.50
63916;BME280;50094;51.356;-0.196;2023-01-19T05:46:27;99840.99;;;19.92;23.52
63916;BME280;50094;51.356;-0.196;2023-01-19T05:48:54;99840.58;;;20.03;23.53
63916;BME280;50094;51.356;-0.196;2023-01-19T05:51:21;99838.48;;;20.15;23.53
63916;BME280;50094;51.356;-0.196;2023-01-19T05:53:47;99836.84;;;19.98;23.54
63916;BME280;50094;51.356;-0.196;2023-01-19T05:56:14;99836.41;;;20.10;23.51
63916;BME280;50094;51.356;-0.196;2023-01-19T05:58:41;99836.69;;;20.00;23.49
63916;BME280;50094;51.356;-0.196;2023-01-19T06:01:09;99834.92;;;20.28;23.46
63916;BME280;50094;51.356;-0.196;2023-01-19T06:03:36;99835.19;;;20.37;23.45
63916;BME280;50094;51.356;-0.196;2023-01-19T06:06:03;99835.26;;;20.20;23.43
63916;BME280;50094;51.356;-0.196;2023-01-19T06:08:31;99833.10;;;20.27;23.42
63916;BME280;50094;51.356;-0.196;2023-01-19T06:10:58;99833.62;;;20.29;23.41
63916;BME280;50094;51.356;-0.196;2023-01-19T06:13:25;99832.62;;;20.56;23.41
63916;BME280;50094;51.356;-0.196;2023-01-19T06:15:56;99833.06;;;20.66;23.37
63916;BME280;50094;51.356;-0.196;2023-01-19T06:18:23;99830.97;;;20.55;23.32
63916;BME280;50094;51.356;-0.196;2023-01-19T06:20:51;99829.38;;;20.80;23.29
63916;BME280;50094;51.356;-0.196;2023-01-19T06:23:19;99831.33;;;20.62;23.25
63916;BME280;50094;51.356;-0.196;2023-01-19T06:25:48;99836.03;;;20.62;23.22
63916;BME280;50094;51.356;-0.196;2023-01-19T06:28:16;99836.16;;;20.67;23.17
63916;BME280;50094;51.356;-0.196;2023-01-19T06:30:47;99835.15;;;20.40;23.14
63916;BME280;50094;51.356;-0.196;2023-01-19T06:33:14;99835.46;;;20.61;23.16
63916;BME280;50094;51.356;-0.196;2023-01-19T06:35:42;99837.40;;;20.53;23.18
63916;BME280;50094;51.356;-0.196;2023-01-19T06:38:10;99836.89;;;20.50;23.17
63916;BME280;50094;51.356;-0.196;2023-01-19T06:40:36;99831.08;;;20.68;23.15
63916;BME280;50094;51.356;-0.196;2023-01-19T06:43:03;99833.26;;;20.66;23.13
63916;BME280;50094;51.356;-0.196;2023-01-19T06:45:30;99838.01;;;20.40;23.13
63916;BME280;50094;51.356;-0.196;2023-01-19T06:47:57;99840.19;;;20.37;23.10
63916;BME280;50094;51.356;-0.196;2023-01-19T06:50:25;99843.88;;;20.60;23.07
63916;BME280;50094;51.356;-0.196;2023-01-19T06:52:52;99844.68;;;20.55;23.05
63916;BME280;50094;51.356;-0.196;2023-01-19T06:55:19;99846.61;;;20.52;23.03
63916;BME280;50094;51.356;-0.196;2023-01-19T06:57:46;99848.77;;;20.36;22.97
63916;BME280;50094;51.356;-0.196;2023-01-19T07:00:14;99851.57;;;20.51;22.96
63916;BME280;50094;51.356;-0.196;2023-01-19T07:02:41;99853.25;;;20.24;22.94
63916;BME280;50094;51.356;-0.196;2023-01-19T07:05:09;99858.25;;;20.22;22.92
63916;BME280;50094;51.356;-0.196;2023-01-19T07:07:36;99859.45;;;20.37;22.91
63916;BME280;50094;51.356;-0.196;2023-01-19T07:10:04;99858.78;;;20.07;22.92
63916;BME280;50094;51.356;-0.196;2023-01-19T07:12:31;99864.62;;;20.25;22.91
63916;BME280;50094;51.356;-0.196;2023-01-19T07:14:58;99869.94;;;20.17;22.93
63916;BME280;50094;51.356;-0.196;2023-01-19T07:17:25;99874.34;;;20.38;22.95
63916;BME280;50094;51.356;-0.196;2023-01-19T07:19:52;99877.34;;;20.25;22.99
63916;BME280;50094;51.356;-0.196;2023-01-19T07:22:19;99874.88;;;20.22;23.00
63916;BME280;50094;51.356;-0.196;2023-01-19T07:24:46;99876.25;;;20.16;23.02
63916;BME280;50094;51.356;-0.196;2023-01-19T07:27:13;99878.69;;;19.88;23.03
63916;BME280;50094;51.356;-0.196;2023-01-19T07:29:40;99881.05;;;20.08;23.07
63916;BME280;50094;51.356;-0.196;2023-01-19T07:32:07;99882.18;;;19.73;23.09
63916;BME280;50094;51.356;-0.196;2023-01-19T07:34:34;99881.72;;;20.00;23.10
63916;BME280;50094;51.356;-0.196;2023-01-19T07:37:01;99883.03;;;19.72;23.11
63916;BME280;50094;51.356;-0.196;2023-01-19T07:39:29;99882.72;;;19.91;23.15
63916;BME280;50094;51.356;-0.196;2023-01-19T07:41:56;99883.70;;;19.93;23.15
63916;BME280;50094;51.356;-0.196;2023-01-19T07:44:23;99881.24;;;19.91;23.16
63916;BME280;50094;51.356;-0.196;2023-01-19T07:46:50;99883.55;;;19.84;23.18
63916;BME280;50094;51.356;-0.196;2023-01-19T07:49:17;99886.92;;;19.84;23.19
63916;BME280;50094;51.356;-0.196;2023-01-19T07:51:44;99888.42;;;19.89;23.19
63916;BME280;50094;51.356;-0.196;2023-01-19T07:54:11;99891.20;;;19.60;23.19
63916;BME280;50094;51.356;-0.196;2023-01-19T07:56:38;99894.17;;;19.54;23.20
63916;BME280;50094;51.356;-0.196;2023-01-19T07:59:05;99895.42;;;19.77;23.23
63916;BME280;50094;51.356;-0.196;2023-01-19T08:01:32;99898.77;;;19.80;23.22
63916;BME280;50094;51.356;-0.196;2023-01-19T08:03:59;99904.36;;;19.79;23.22
63916;BME280;50094;51.356;-0.196;2023-01-19T08:06:32;99906.88;;;19.78;23.23
63916;BME280;50094;51.356;-0.196;2023-01-19T08:09:00;99907.30;;;19.75;23.23
63916;BME280;50094;51.356;-0.196;2023-01-19T08:11:27;99913.65;;;19.72;23.23
63916;BME280;50094;51.356;-0.196;2023-01-19T08:13:54;99916.52;;;19.65;23.25
63916;BME280;50094;51.356;-0.196;2023-01-19T08:16:21;99920.03;;;19.66;23.25
63916;BME280;50094;51.356;-0.196;2023-01-19T08:18:49;99918.01;;;19.60;23.26
63916;BME280;50094;51.356;-0.196;2023-01-19T08:21:16;99915.30;;;19.60;23.27
63916;BME280;50094;51.356;-0.196;2023-01-19T08:23:43;99918.89;;;19.83;23.27
63916;BME280;50094;51.356;-0.196;2023-01-19T08:26:18;99915.96;;;19.57;23.28
63916;BME280;50094;51.356;-0.196;2023-01-19T08:28:46;99919.34;;;19.62;23.26
63916;BME280;50094;51.356;-0.196;2023-01-19T08:31:13;99918.84;;;19.62;23.26
63916;BME280;50094;51.356;-0.196;2023-01-19T08:33:40;99918.97;;;19.60;23.26
63916;BME280;50094;51.356;-0.196;2023-01-19T08:36:07;99919.28;;;19.55;23.27
63916;BME280;50094;51.356;-0.196;2023-01-19T08:38:34;99919.34;;;19.57;23.26
63916;BME280;50094;51.356;-0.196;2023-01-19T08:41:01;99923.11;;;19.58;23.24
63916;BME280;50094;51.356;-0.196;2023-01-19T08:43:28;99924.12;;;19.50;23.27
63916;BME280;50094;51.356;-0.196;2023-01-19T08:45:55;99922.48;;;19.55;23.26
63916;BME280;50094;51.356;-0.196;2023-01-19T08:48:22;99920.91;;;19.60;23.25
63916;BME280;50094;51.356;-0.196;2023-01-19T08:50:50;99919.47;;;19.55;23.25
63916;BME280;50094;51.356;-0.196;2023-01-19T08:53:18;99920.98;;;19.52;23.25
63916;BME280;50094;51.356;-0.196;2023-01-19T08:55:46;99921.03;;;19.71;23.26
63916;BME280;50094;51.356;-0.196;2023-01-19T08:58:13;99920.40;;;19.48;23.26
63916;BME280;50094;51.356;-0.196;2023-01-19T09:00:40;99922.22;;;19.46;23.26
63916;BME280;50094;51.356;-0.196;2023-01-19T09:03:10;99925.62;;;19.45;23.26
63916;BME280;50094;51.356;-0.196;2023-01-19T09:05:38;99929.99;;;19.45;23.26
63916;BME280;50094;51.356;-0.196;2023-01-19T09:08:07;99928.22;;;19.45;23.26
63916;BME280;50094;51.356;-0.196;2023-01-19T09:10:35;99931.05;;;19.56;23.24
63916;BME280;50094;51.356;-0.196;2023-01-19T09:13:03;99931.78;;;19.57;23.22
63916;BME280;50094;51.356;-0.196;2023-01-19T09:15:31;99931.81;;;19.96;23.22
63916;BME280;50094;51.356;-0.196;2023-01-19T09:17:59;99934.83;;;19.44;23.23
63916;BME280;50094;51.356;-0.196;2023-01-19T09:20:26;99937.80;;;19.43;23.23
63916;BME280;50094;51.356;-0.196;2023-01-19T09:22:54;99939.16;;;19.48;23.22
63916;BME280;50094;51.356;-0.196;2023-01-19T09:25:22;99935.23;;;19.46;23.22
63916;BME280;50094;51.356;-0.196;2023-01-19T09:27:49;99938.70;;;19.72;23.20
63916;BME280;50094;51.356;-0.196;2023-01-19T09:30:18;99941.23;;;19.40;23.23
63916;BME280;50094;51.356;-0.196;2023-01-19T09:32:45;99942.61;;;19.44;23.22
63916;BME280;50094;51.356;-0.196;2023-01-19T09:35:13;99944.50;;;19.60;23.24
63916;BME280;50094;51.356;-0.196;2023-01-19T09:37:44;99942.40;;;19.67;23.22
63916;BME280;50094;51.356;-0.196;2023-01-19T09:40:13;99944.53;;;19.51;23.20
63916;BME280;50094;51.356;-0.196;2023-01-19T09:42:43;99946.37;;;19.48;23.20
63916;BME280;50094;51.356;-0.196;2023-01-19T09:45:15;99944.99;;;19.44;23.21
63916;BME280;50094;51.356;-0.196;2023-01-19T09:47:44;99942.91;;;19.45;23.22
63916;BME280;50094;51.356;-0.196;2023-01-19T09:50:18;99944.82;;;19.89;23.22
63916;BME280;50094;51.356;-0.196;2023-01-19T09:52:53;99946.10;;;19.64;23.24
63916;BME280;50094;51.356;-0.196;2023-01-19T09:55:25;99946.36;;;19.40;23.26
63916;BME280;50094;51.356;-0.196;2023-01-19T09:57:53;99945.16;;;19.38;23.28
63916;BME280;50094;51.356;-0.196;2023-01-19T10:00:21;99948.17;;;19.46;23.26
63916;BME280;50094;51.356;-0.196;2023-01-19T10:02:54;99948.08;;;19.45;23.28
63916;BME280;50094;51.356;-0.196;2023-01-19T10:05:28;99950.06;;;19.46;23.32
63916;BME280;50094;51.356;-0.196;2023-01-19T10:08:09;99949.34;;;19.76;23.37
63916;BME280;50094;51.356;-0.196;2023-01-19T10:10:44;99954.38;;;19.68;23.44
63916;BME280;50094;51.356;-0.196;2023-01-19T10:13:23;99954.36;;;19.83;23.49
63916;BME280;50094;51.356;-0.196;2023-01-19T10:16:01;99957.45;;;19.95;23.52
63916;BME280;50094;51.356;-0.196;2023-01-19T10:18:39;99958.20;;;19.82;23.56
63916;BME280;50094;51.356;-0.196;2023-01-19T10:21:11;99956.37;;;20.04;23.57
63916;BME280;50094;51.356;-0.196;2023-01-19T10:23:42;99956.18;;;19.97;23.56
63916;BME280;50094;51.356;-0.196;2023-01-19T10:26:15;99961.18;;;20.29;23.55
63916;BME280;50094;51.356;-0.196;2023-01-19T10:28:44;99960.99;;;20.16;23.53
63916;BME280;50094;51.356;-0.196;2023-01-19T10:31:13;99964.81;;;20.33;23.49
63916;BME280;50094;51.356;-0.196;2023-01-19T10:33:43;99964.15;;;20.46;23.49
63916;BME280;50094;51.356;-0.196;2023-01-19T10:36:17;99965.86;;;20.56;23.47
63916;BME280;50094;51.356;-0.196;2023-01-19T10:38:45;99968.85;;;20.61;23.47
63916;BME280;50094;51.356;-0.196;2023-01-19T10:41:17;99972.28;;;20.76;23.47
63916;BME280;50094;51.356;-0.196;2023-01-19T10:43:45;99978.83;;;20.79;23.46
63916;BME280;50094;51.356;-0.196;2023-01-19T10:46:19;99979.60;;;20.81;23.44
63916;BME280;50094;51.356;-0.196;2023-01-19T10:48:49;99976.85;;;20.81;23.44
63916;BME280;50094;51.356;-0.196;2023-01-19T10:51:17;99975.33;;;20.93;23.43
63916;BME280;50094;51.356;-0.196;2023-01-19T10:53:54;99975.59;;;21.00;23.41
63916;BME280;50094;51.356;-0.196;2023-01-19T10:56:24;99970.83;;;20.98;23.41
63916;BME280;50094;51.356;-0.196;2023-01-19T10:58:52;99971.01;;;21.03;23.41
63916;BME280;50094;51.356;-0.196;2023-01-19T11:01:20;99970.55;;;21.15;23.40
63916;BME280;50094;51.356;-0.196;2023-01-19T11:03:48;99971.13;;;20.95;23.40
63916;BME280;50094;51.356;-0.196;2023-01-19T11:06:26;99966.78;;;20.72;23.40
63916;BME280;50094;51.356;-0.196;2023-01-19T11:09:10;99963.11;;;21.33;23.40
63916;BME280;50094;51.356;-0.196;2023-01-19T11:11:43;99959.22;;;21.35;23.40
63916;BME280;50094;51.356;-0.196;2023-01-19T11:14:13;99958.62;;;21.15;23.43
63916;BME280;50094;51.356;-0.196;2023-01-19T11:16:45;99958.91;;;21.44;23.42
63916;BME280;50094;51.356;-0.196;2023-01-19T11:19:19;99957.87;;;21.43;23.44
63916;BME280;50094;51.356;-0.196;2023-01-19T11:21:48;99963.90;;;21.28;23.44
63916;BME280;50094;51.356;-0.196;2023-01-19T11:24:15;99962.62;;;21.48;23.46
63916;BME280;50094;51.356;-0.196;2023-01-19T11:26:44;99962.26;;;21.28;23.45
63916;BME280;50094;51.356;-0.196;2023-01-19T11:29:18;99963.29;;;21.32;23.47
63916;BME280;50094;51.356;-0.196;2023-01-19T11:31:46;99962.47;;;21.07;23.49
63916;BME280;50094;51.356;-0.196;2023-01-19T11:34:24;99964.92;;;21.60;23.51
63916;BME280;50094;51.356;-0.196;2023-01-19T11:36:56;99964.27;;;21.38;23.50
63916;BME280;50094;51.356;-0.196;2023-01-19T11:39:25;99964.37;;;21.44;23.50
63916;BME280;50094;51.356;-0.196;2023-01-19T11:41:55;99965.38;;;21.22;23.49
63916;BME280;50094;51.356;-0.196;2023-01-19T11:44:26;99963.29;;;21.51;23.49
63916;BME280;50094;51.356;-0.196;2023-01-19T11:46:56;99962.00;;;21.26;23.49
63916;BME280;50094;51.356;-0.196;2023-01-19T11:49:31;99961.20;;;21.53;23.50
63916;BME280;50094;51.356;-0.196;2023-01-19T11:52:05;99959.68;;;21.41;23.49
63916;BME280;50094;51.356;-0.196;2023-01-19T11:54:43;99960.03;;;21.42;23.51
63916;BME280;50094;51.356;-0.196;2023-01-19T11:57:14;99955.86;;;21.70;23.50
63916;BME280;50094;51.356;-0.196;2023-01-19T11:59:43;99954.40;;;21.40;23.51
63916;BME280;50094;51.356;-0.196;2023-01-19T12:02:19;99955.20;;;21.42;23.51
63916;BME280;50094;51.356;-0.196;2023-01-19T12:04:49;99952.72;;;21.43;23.52
63916;BME280;50094;51.356;-0.196;2023-01-19T12:07:23;99949.73;;;21.46;23.52
63916;BME280;50094;51.356;-0.196;2023-01-19T12:09:54;99942.70;;;21.48;23.51
63916;BME280;50094;51.356;-0.196;2023-01-19T12:12:27;99939.37;;;21.57;23.50
63916;BME280;50094;51.356;-0.196;2023-01-19T12:14:59;99934.62;;;21.81;23.50
63916;BME280;50094;51.356;-0.196;2023-01-19T12:17:30;99933.76;;;21.58;23.49
63916;BME280;50094;51.356;-0.196;2023-01-19T12:20:05;99930.78;;;21.60;23.50
63916;BME280;50094;51.356;-0.196;2023-01-19T12:22:39;99925.06;;;21.59;23.49
63916;BME280;50094;51.356;-0.196;2023-01-19T12:25:16;99927.26;;;21.62;23.49
63916;BME280;50094;51.356;-0.196;2023-01-19T12:27:47;99923.75;;;21.60;23.50
63916;BME280;50094;51.356;-0.196;2023-01-19T12:30:18;99918.89;;;21.65;23.50
63916;BME280;50094;51.356;-0.196;2023-01-19T12:32:47;99921.60;;;21.59;23.50
63916;BME280;50094;51.356;-0.196;2023-01-19T12:37:33;99919.21;;;22.09;23.52
63916;BME280;50094;51.356;-0.196;2023-01-19T12:40:17;99915.28;;;21.92;23.50
63916;BME280;50094;51.356;-0.196;2023-01-19T12:42:46;99913.30;;;21.69;23.49
63916;BME280;50094;51.356;-0.196;2023-01-19T12:45:19;99911.28;;;21.98;23.49
63916;BME280;50094;51.356;-0.196;2023-01-19T12:47:50;99908.87;;;21.76;23.46
63916;BME280;50094;51.356;-0.196;2023-01-19T12:50:20;99908.34;;;21.72;23.46
63916;BME280;50094;51.356;-0.196;2023-01-19T12:52:50;99909.72;;;21.73;23.46
63916;BME280;50094;51.356;-0.196;2023-01-19T12:55:22;99910.56;;;21.74;23.45
63916;BME280;50094;51.356;-0.196;2023-01-19T12:57:55;99912.18;;;21.74;23.44
63916;BME280;50094;51.356;-0.196;2023-01-19T13:00:34;99910.30;;;21.52;23.44
63916;BME280;50094;51.356;-0.196;2023-01-19T13:03:04;99910.29;;;21.81;23.42